Time;durP1;ratioP1;P1;durP2;ratioP2;P2;SDS_P1;SDS_P2;PMS_P1;PMS_P2;Temp;Humidity;BMP_temperature;BMP_pressure;BME280_temperature;BME280_humidity;BME280_pressure;Samples;Min_cycle;Max_cycle;Signal;HPM_P1;HPM_P2
2022/09/25 00:01:24;;;;;;;22.10;19.50;;;16.90;99.90;;;;;;4998732;28;20174;-66
2022/09/25 00:03:49;;;;;;;22.40;19.97;;;16.90;99.90;;;;;;5033401;28;20420;-67
2022/09/25 00:06:21;;;;;;;21.23;18.87;;;16.90;99.90;;;;;;5014794;28;20731;-67
2022/09/25 00:08:47;;;;;;;23.43;19.37;;;16.90;99.90;;;;;;5034107;28;20280;-67
2022/09/25 00:11:19;;;;;;;21.13;18.97;;;16.90;99.90;;;;;;5032555;28;20772;-67
2022/09/25 00:13:45;;;;;;;23.37;20.87;;;16.90;99.90;;;;;;5033439;28;20752;-68
2022/09/25 00:16:14;;;;;;;23.10;20.80;;;16.90;99.90;;;;;;5032974;28;20425;-67
2022/09/25 00:21:29;;;;;;;28.33;20.43;;;16.90;99.90;;;;;;5032769;28;20455;-67
2022/09/25 00:24:04;;;;;;;21.90;19.60;;;16.90;99.90;;;;;;5033096;28;20442;-67
2022/09/25 00:26:32;;;;;;;22.43;19.77;;;16.90;99.90;;;;;;5032491;28;20444;-67
2022/09/25 00:29:01;;;;;;;24.63;21.30;;;16.90;99.90;;;;;;5015046;28;20794;-68
2022/09/25 00:31:28;;;;;;;22.23;19.83;;;17.00;99.90;;;;;;5033023;28;20805;-67
2022/09/25 00:33:58;;;;;;;25.53;21.03;;;16.90;99.90;;;;;;5032317;28;20466;-67
2022/09/25 00:36:24;;;;;;;19.97;17.90;;;16.90;99.90;;;;;;5032664;28;20421;-66
2022/09/25 00:38:51;;;;;;;21.27;19.13;;;16.90;99.90;;;;;;5033553;28;20444;-67
2022/09/25 00:41:19;;;;;;;27.83;22.20;;;16.90;99.90;;;;;;5014462;28;20847;-67
2022/09/25 00:43:49;;;;;;;22.67;19.60;;;16.90;99.90;;;;;;5032509;28;20409;-67
2022/09/25 00:46:34;;;;;;;26.67;21.20;;;16.90;99.90;;;;;;5015189;28;20429;-67
2022/09/25 00:49:12;;;;;;;22.43;19.97;;;16.90;99.90;;;;;;5015595;28;21027;-67
2022/09/25 00:52:05;;;;;;;20.93;18.80;;;16.90;99.90;;;;;;5033421;28;20416;-66
2022/09/25 00:54:40;;;;;;;22.77;19.17;;;16.90;99.90;;;;;;5029182;28;20452;-67
2022/09/25 00:57:11;;;;;;;20.47;18.50;;;16.90;99.90;;;;;;5033364;28;20417;-66
2022/09/25 00:59:40;;;;;;;19.30;17.23;;;16.80;99.90;;;;;;5033366;28;20424;-67
2022/09/25 01:02:12;;;;;;;17.60;14.63;;;16.80;99.90;;;;;;5032281;28;20433;-67
2022/09/25 01:04:40;;;;;;;16.80;15.20;;;16.80;99.90;;;;;;5032170;28;20457;-67
2022/09/25 01:07:07;;;;;;;19.57;16.67;;;16.90;99.90;;;;;;5033025;28;20449;-66
2022/09/25 01:09:34;;;;;;;19.97;15.33;;;16.90;99.90;;;;;;5032011;28;20952;-66
2022/09/25 01:12:00;;;;;;;16.47;14.67;;;16.90;99.90;;;;;;5033035;28;20405;-66
2022/09/25 01:14:26;;;;;;;17.30;14.70;;;16.90;99.90;;;;;;5031430;28;20843;-66
2022/09/25 01:17:05;;;;;;;15.10;13.60;;;16.90;99.90;;;;;;5032184;28;20515;-67
2022/09/25 01:19:56;;;;;;;14.60;13.07;;;16.90;99.90;;;;;;5014223;28;21062;-66
2022/09/25 01:22:43;;;;;;;13.00;11.80;;;16.90;99.90;;;;;;5032367;28;20409;-67
2022/09/25 01:25:26;;;;;;;13.67;12.27;;;16.90;99.90;;;;;;5014560;28;20816;-67
2022/09/25 01:28:13;;;;;;;13.47;12.17;;;16.90;99.90;;;;;;5032109;28;20487;-67
2022/09/25 01:30:44;;;;;;;13.70;11.97;;;16.90;99.90;;;;;;5032916;28;20416;-66
2022/09/25 01:33:17;;;;;;;13.03;11.50;;;16.90;99.90;;;;;;5032881;28;20408;-66
2022/09/25 01:35:55;;;;;;;13.17;11.70;;;16.90;99.90;;;;;;5032191;28;20437;-66
2022/09/25 01:38:45;;;;;;;14.73;12.53;;;16.90;99.90;;;;;;5031845;28;20974;-67
2022/09/25 01:41:21;;;;;;;13.97;11.70;;;16.90;99.90;;;;;;5032100;28;21006;-66
2022/09/25 01:43:50;;;;;;;12.00;10.67;;;16.90;99.90;;;;;;5031099;28;20427;-66
2022/09/25 01:46:24;;;;;;;12.13;10.33;;;16.90;99.90;;;;;;5032083;28;20424;-67
2022/09/25 01:48:55;;;;;;;11.87;10.70;;;16.90;99.90;;;;;;5032520;28;20443;-67
2022/09/25 01:51:27;;;;;;;12.73;9.90;;;16.90;99.90;;;;;;5032044;28;20867;-67
2022/09/25 01:53:57;;;;;;;11.10;10.10;;;16.90;99.90;;;;;;5031728;28;20436;-66
2022/09/25 01:56:32;;;;;;;10.13;8.90;;;16.80;99.90;;;;;;4954653;28;20483;-67
2022/09/25 01:59:17;;;;;;;11.13;9.10;;;16.80;99.90;;;;;;5012756;28;20417;-66
2022/09/25 02:01:44;;;;;;;10.73;9.17;;;16.80;99.90;;;;;;5012002;28;20453;-67
2022/09/25 02:04:17;;;;;;;9.33;8.43;;;16.80;99.90;;;;;;5030579;28;20817;-66
2022/09/25 02:06:46;;;;;;;9.53;8.30;;;16.80;99.90;;;;;;5015197;28;20452;-67
2022/09/25 02:09:20;;;;;;;9.13;8.10;;;16.80;99.90;;;;;;5036372;28;20458;-66
2022/09/25 02:11:50;;;;;;;10.03;9.03;;;16.80;99.90;;;;;;5035760;28;20432;-66
2022/09/25 02:14:28;;;;;;;9.73;8.17;;;16.90;99.90;;;;;;5034906;28;20909;-69
2022/09/25 02:16:57;;;;;;;10.03;9.13;;;16.90;99.90;;;;;;5035450;28;20424;-66
2022/09/25 02:22:19;;;;;;;8.33;7.60;;;16.90;99.90;;;;;;5035413;28;20397;-67
2022/09/25 02:24:55;;;;;;;8.67;7.90;;;16.90;99.90;;;;;;5036064;28;20413;-67
2022/09/25 02:27:23;;;;;;;9.20;8.20;;;16.90;99.90;;;;;;5035399;28;20753;-67
2022/09/25 02:29:50;;;;;;;8.30;7.60;;;16.80;99.90;;;;;;5035816;28;20408;-71
2022/09/25 02:32:23;;;;;;;9.53;8.73;;;16.90;99.90;;;;;;5034615;28;20465;-73
2022/09/25 02:34:50;;;;;;;9.70;8.90;;;16.80;99.90;;;;;;5035975;28;20402;-67
2022/09/25 02:37:17;;;;;;;14.37;10.67;;;16.80;99.90;;;;;;5035760;28;20492;-73
2022/09/25 02:39:48;;;;;;;12.10;10.97;;;16.80;99.90;;;;;;5035152;28;20457;-67
2022/09/25 02:42:29;;;;;;;14.30;11.93;;;16.80;99.90;;;;;;5035004;28;20397;-67
2022/09/25 02:45:18;;;;;;;12.50;10.47;;;16.70;99.90;;;;;;5035799;28;20409;-67
2022/09/25 02:48:01;;;;;;;11.80;10.17;;;16.70;99.90;;;;;;5035709;28;20934;-67
2022/09/25 02:50:39;;;;;;;14.03;11.40;;;16.70;99.90;;;;;;5034422;28;20470;-67
2022/09/25 02:53:31;;;;;;;11.60;10.50;;;16.60;99.90;;;;;;5033170;28;20446;-66
2022/09/25 02:56:10;;;;;;;10.70;9.70;;;16.60;99.90;;;;;;5035010;28;20487;-66
2022/09/25 02:58:43;;;;;;;10.33;9.40;;;16.60;99.90;;;;;;5034941;28;20405;-66
2022/09/25 03:01:13;;;;;;;13.77;8.63;;;16.60;99.90;;;;;;5034510;28;20474;-66
2022/09/25 03:03:42;;;;;;;8.77;7.97;;;16.60;99.90;;;;;;5032993;28;20429;-67
2022/09/25 03:06:08;;;;;;;9.07;8.27;;;16.60;99.90;;;;;;5033968;28;20475;-67
2022/09/25 03:08:41;;;;;;;7.80;6.87;;;16.70;99.90;;;;;;5016934;28;20452;-66
2022/09/25 03:11:15;;;;;;;9.20;7.87;;;16.60;99.90;;;;;;5033818;28;20479;-66
2022/09/25 03:13:42;;;;;;;8.07;7.37;;;16.60;99.90;;;;;;5033625;28;20575;-67
2022/09/25 03:16:29;;;;;;;7.33;6.63;;;16.60;99.90;;;;;;5035169;28;20408;-66
2022/09/25 03:18:55;;;;;;;7.37;6.83;;;16.60;99.90;;;;;;5033156;28;20432;-66
2022/09/25 03:21:20;;;;;;;9.23;7.27;;;16.60;99.90;;;;;;5033389;28;20439;-67
2022/09/25 03:23:46;;;;;;;7.43;6.70;;;16.70;99.90;;;;;;5034128;28;20426;-67
2022/09/25 03:26:12;;;;;;;8.20;7.10;;;16.70;99.90;;;;;;5034949;28;20216;-66
2022/09/25 03:28:38;;;;;;;7.10;6.50;;;16.70;99.90;;;;;;4966940;28;20218;-66
2022/09/25 03:31:10;;;;;;;7.03;6.47;;;16.60;99.90;;;;;;5034585;28;20412;-66
2022/09/25 03:33:41;;;;;;;8.23;7.00;;;16.60;99.90;;;;;;5032113;28;20425;-66
2022/09/25 03:36:09;;;;;;;8.93;6.43;;;16.60;99.90;;;;;;5034620;28;20775;-67
2022/09/25 03:38:36;;;;;;;6.30;5.50;;;16.60;99.90;;;;;;5034109;28;20864;-67
2022/09/25 03:41:03;;;;;;;5.73;5.23;;;16.60;99.90;;;;;;5034263;28;20750;-67
2022/09/25 03:43:32;;;;;;;5.77;5.20;;;16.60;99.90;;;;;;5033254;28;20990;-67
2022/09/25 03:45:58;;;;;;;6.67;5.50;;;16.50;99.90;;;;;;5033750;28;20421;-67
2022/09/25 03:48:23;;;;;;;5.80;4.50;;;16.50;99.90;;;;;;5033856;28;20463;-68
2022/09/25 03:50:49;;;;;;;7.80;5.23;;;16.50;99.90;;;;;;5034482;28;20201;-67
2022/09/25 03:53:17;;;;;;;5.43;4.67;;;16.50;99.90;;;;;;5033329;28;20210;-67
2022/09/25 03:55:46;;;;;;;5.50;5.00;;;16.50;99.90;;;;;;5032035;28;20539;-68
2022/09/25 03:58:13;;;;;;;6.33;4.37;;;16.50;99.90;;;;;;5034465;28;20409;-68
2022/09/25 04:00:40;;;;;;;5.50;5.00;;;16.40;99.90;;;;;;5033690;28;20416;-67
2022/09/25 04:03:05;;;;;;;5.50;4.40;;;16.40;99.90;;;;;;5032730;28;20433;-67
2022/09/25 04:05:31;;;;;;;8.00;4.70;;;16.40;99.90;;;;;;5033616;28;21035;-68
2022/09/25 04:07:59;;;;;;;4.97;4.47;;;16.30;99.90;;;;;;5034362;28;20218;-68
2022/09/25 04:10:25;;;;;;;7.90;4.53;;;16.30;99.90;;;;;;5033886;28;20416;-67
2022/09/25 04:12:53;;;;;;;4.80;4.30;;;16.30;99.90;;;;;;5033280;28;20484;-67
2022/09/25 04:15:22;;;;;;;5.27;4.70;;;16.30;99.90;;;;;;5034148;28;20435;-67
2022/09/25 04:17:48;;;;;;;6.33;5.60;;;16.30;99.90;;;;;;5034072;28;20397;-67
2022/09/25 04:20:14;;;;;;;10.33;5.57;;;16.20;99.90;;;;;;5033974;28;20420;-67
2022/09/25 04:22:40;;;;;;;6.90;5.67;;;16.30;99.90;;;;;;5029081;28;20424;-67
2022/09/25 04:25:06;;;;;;;6.23;5.60;;;16.20;99.90;;;;;;5033979;28;20464;-67
2022/09/25 04:27:32;;;;;;;5.93;5.40;;;16.20;99.90;;;;;;5032786;28;20207;-67
2022/09/25 04:30:00;;;;;;;5.80;4.50;;;16.20;99.90;;;;;;5033465;28;20505;-66
2022/09/25 04:35:10;;;;;;;8.83;4.97;;;16.20;99.90;;;;;;5031593;28;20432;-67
2022/09/25 04:37:35;;;;;;;7.30;5.27;;;16.30;99.90;;;;;;5032761;28;20435;-67
2022/09/25 04:40:01;;;;;;;7.07;4.30;;;16.30;99.90;;;;;;5033498;28;20311;-67
2022/09/25 04:42:27;;;;;;;6.93;4.47;;;16.30;99.90;;;;;;5031969;28;20191;-67
2022/09/25 04:44:54;;;;;;;7.60;4.20;;;16.30;99.90;;;;;;5033141;28;20182;-67
2022/09/25 04:47:21;;;;;;;5.50;4.43;;;16.20;99.90;;;;;;5033419;28;20175;-67
2022/09/25 04:49:48;;;;;;;8.80;3.90;;;16.20;99.90;;;;;;5032696;28;20416;-67
2022/09/25 04:52:15;;;;;;;4.13;3.67;;;16.20;99.90;;;;;;5032577;28;20472;-67
2022/09/25 04:54:41;;;;;;;5.63;4.00;;;16.20;99.90;;;;;;5032372;28;20439;-67
2022/09/25 04:57:15;;;;;;;7.17;4.07;;;16.20;99.90;;;;;;5033164;28;20883;-67
2022/09/25 04:59:41;;;;;;;4.67;4.23;;;16.20;99.90;;;;;;5032353;28;20756;-67
2022/09/25 05:02:06;;;;;;;5.03;4.50;;;16.20;99.90;;;;;;5031828;28;20516;-67
2022/09/25 05:04:32;;;;;;;5.13;3.93;;;16.10;99.90;;;;;;5032003;28;20229;-67
2022/09/25 05:06:58;;;;;;;6.60;4.13;;;16.10;99.90;;;;;;5033244;28;20200;-67
2022/09/25 05:09:23;;;;;;;5.50;4.60;;;16.10;99.90;;;;;;5032845;28;20656;-67
2022/09/25 05:11:49;;;;;;;4.60;4.20;;;16.00;99.90;;;;;;5030182;28;20194;-67
2022/09/25 05:14:15;;;;;;;5.20;4.10;;;16.00;99.90;;;;;;5033233;28;20529;-67
2022/09/25 05:16:41;;;;;;;6.93;4.83;;;16.00;99.90;;;;;;5032344;28;20215;-67
2022/09/25 05:19:07;;;;;;;5.80;4.63;;;16.00;99.90;;;;;;5032788;28;20889;-67
2022/09/25 05:21:33;;;;;;;5.80;4.20;;;15.90;99.90;;;;;;5030676;28;20540;-67
2022/09/25 05:23:59;;;;;;;4.90;4.47;;;15.90;99.90;;;;;;5032878;28;20415;-67
2022/09/25 05:26:26;;;;;;;4.40;3.70;;;15.90;99.90;;;;;;5032732;28;20180;-67
2022/09/25 05:28:52;;;;;;;6.03;4.70;;;15.80;99.90;;;;;;5023650;28;20350;-67
2022/09/25 05:31:18;;;;;;;6.13;4.63;;;15.80;99.90;;;;;;5013282;28;20500;-67
2022/09/25 05:33:43;;;;;;;6.57;4.43;;;15.80;99.90;;;;;;5028968;28;20179;-67
2022/09/25 05:36:12;;;;;;;4.73;3.80;;;15.70;99.90;;;;;;5014863;28;20448;-67
2022/09/25 05:38:39;;;;;;;5.13;4.17;;;15.70;99.90;;;;;;5032017;28;20177;-67
2022/09/25 05:41:07;;;;;;;11.93;6.10;;;15.70;99.90;;;;;;5032081;28;20760;-67
2022/09/25 05:43:36;;;;;;;5.10;4.53;;;15.70;99.90;;;;;;5030572;28;20440;-67
2022/09/25 05:46:02;;;;;;;7.43;4.50;;;15.70;99.90;;;;;;5031707;28;20451;-67
2022/09/25 05:48:28;;;;;;;4.60;4.20;;;15.70;99.90;;;;;;5012988;28;20619;-74
2022/09/25 05:50:55;;;;;;;4.90;4.40;;;15.60;99.90;;;;;;5011821;28;20185;-67
2022/09/25 05:53:21;;;;;;;5.30;4.30;;;15.60;99.90;;;;;;5018950;28;20212;-66
2022/09/25 05:55:58;;;;;;;5.73;4.17;;;15.60;99.90;;;;;;5005103;28;20750;-68
2022/09/25 05:58:26;;;;;;;8.80;4.90;;;15.60;99.90;;;;;;5011218;28;20430;-67
2022/09/25 06:00:52;;;;;;;7.33;4.70;;;15.60;99.90;;;;;;5012133;28;20404;-67
2022/09/25 06:03:18;;;;;;;6.03;5.43;;;15.50;99.90;;;;;;5024373;28;20439;-67
2022/09/25 06:05:45;;;;;;;7.10;4.77;;;15.50;99.90;;;;;;5031507;28;20233;-67
2022/09/25 06:08:12;;;;;;;5.43;4.67;;;15.50;99.90;;;;;;5032223;28;20455;-67
2022/09/25 06:10:41;;;;;;;7.90;5.13;;;15.50;99.90;;;;;;5031827;28;20457;-67
2022/09/25 06:13:07;;;;;;;5.30;4.80;;;15.50;99.90;;;;;;5030829;28;20431;-67
2022/09/25 06:15:36;;;;;;;5.07;4.57;;;15.50;99.90;;;;;;5031571;28;20447;-67
2022/09/25 06:18:06;;;;;;;7.60;5.10;;;15.50;99.90;;;;;;5032569;28;20415;-67
2022/09/25 06:20:32;;;;;;;7.47;4.63;;;15.60;99.90;;;;;;5031965;28;20802;-67
2022/09/25 06:22:59;;;;;;;5.30;4.23;;;15.50;99.90;;;;;;5030270;28;20477;-67
2022/09/25 06:25:28;;;;;;;4.93;4.50;;;15.50;99.90;;;;;;5032086;28;20751;-67
2022/09/25 06:27:55;;;;;;;8.50;4.97;;;15.50;99.90;;;;;;5031583;28;20538;-67
2022/09/25 06:30:26;;;;;;;7.80;5.00;;;15.50;99.90;;;;;;5032273;28;20954;-67
2022/09/25 06:32:58;;;;;;;4.43;4.03;;;15.40;99.90;;;;;;5029718;28;20463;-67
2022/09/25 06:35:25;;;;;;;4.87;4.47;;;15.50;99.90;;;;;;5032054;28;20426;-67
2022/09/25 06:37:51;;;;;;;4.53;4.20;;;15.40;99.90;;;;;;5031623;28;20804;-67
2022/09/25 06:40:17;;;;;;;8.60;5.23;;;15.40;99.90;;;;;;5019163;28;20433;-67
2022/09/25 06:42:44;;;;;;;8.47;4.53;;;15.40;99.90;;;;;;5017191;28;20433;-67
2022/09/25 06:45:10;;;;;;;6.30;4.73;;;15.40;99.90;;;;;;5030982;28;20481;-66
2022/09/25 06:47:36;;;;;;;7.13;4.67;;;15.30;99.90;;;;;;5031357;28;20450;-68
2022/09/25 06:50:02;;;;;;;5.47;4.37;;;15.40;99.90;;;;;;5025063;28;20575;-68
2022/09/25 06:52:27;;;;;;;4.87;4.37;;;15.70;99.90;;;;;;5015149;28;20178;-68
2022/09/25 06:54:53;;;;;;;5.60;4.33;;;15.80;99.90;;;;;;5033301;28;20471;-68
2022/09/25 06:57:19;;;;;;;5.83;4.07;;;15.90;99.90;;;;;;5034510;28;20264;-71
2022/09/25 06:59:45;;;;;;;7.40;4.43;;;16.10;99.90;;;;;;5014325;28;20181;-69
2022/09/25 07:04:55;;;;;;;4.77;4.27;;;16.50;99.90;;;;;;5006916;28;20563;-69
2022/09/25 07:07:23;;;;;;;5.10;3.90;;;16.70;99.90;;;;;;4940252;28;20427;-69
2022/09/25 07:09:48;;;;;;;6.07;5.53;;;16.90;99.90;;;;;;5009706;28;20182;-68
2022/09/25 07:12:16;;;;;;;5.90;5.40;;;17.00;99.90;;;;;;4988551;28;20502;-69
2022/09/25 07:14:43;;;;;;;7.23;5.10;;;17.10;99.90;;;;;;5005659;28;20173;-69
2022/09/25 07:17:09;;;;;;;5.33;5.00;;;17.30;99.90;;;;;;4991383;28;20425;-69
2022/09/25 07:19:34;;;;;;;7.17;5.80;;;17.40;99.90;;;;;;5005163;28;20442;-69
2022/09/25 07:22:00;;;;;;;6.10;5.10;;;17.50;99.90;;;;;;5003600;28;20175;-72
2022/09/25 07:24:26;;;;;;;6.90;6.20;;;17.60;99.90;;;;;;5011136;28;20186;-69
2022/09/25 07:26:52;;;;;;;5.23;4.73;;;17.70;99.90;;;;;;5004940;28;20215;-69
2022/09/25 07:29:18;;;;;;;5.30;4.37;;;17.80;99.90;;;;;;5005832;28;20698;-69
2022/09/25 07:31:44;;;;;;;5.33;4.83;;;17.90;99.90;;;;;;5005392;28;20290;-68
2022/09/25 07:34:10;;;;;;;5.67;4.07;;;17.90;99.90;;;;;;5014113;28;20524;-68
2022/09/25 07:36:40;;;;;;;5.70;5.20;;;18.00;99.90;;;;;;5013634;28;20192;-69
2022/09/25 07:39:06;;;;;;;7.73;5.30;;;18.10;99.90;;;;;;5012476;28;20445;-69
2022/09/25 07:41:33;;;;;;;6.03;5.30;;;18.10;99.90;;;;;;5006262;28;20933;-69
2022/09/25 07:43:58;;;;;;;7.57;4.93;;;18.20;99.90;;;;;;5013803;28;20487;-68
2022/09/25 07:46:26;;;;;;;5.87;5.20;;;18.20;99.90;;;;;;5014573;28;20948;-69
2022/09/25 07:48:52;;;;;;;5.00;4.70;;;18.30;99.90;;;;;;5009261;28;20218;-69
2022/09/25 07:51:20;;;;;;;7.07;4.77;;;18.30;99.90;;;;;;5005904;28;20507;-68
2022/09/25 07:53:47;;;;;;;7.93;5.23;;;18.40;99.90;;;;;;5002596;28;21040;-69
2022/09/25 07:56:13;;;;;;;7.70;6.67;;;18.40;99.90;;;;;;5004542;28;20472;-69
2022/09/25 07:58:39;;;;;;;9.40;4.80;;;18.50;99.90;;;;;;5003720;28;20449;-70
2022/09/25 08:01:07;;;;;;;6.00;5.43;;;18.50;99.90;;;;;;5004511;28;20425;-69
2022/09/25 08:03:33;;;;;;;5.03;4.53;;;18.50;99.40;;;;;;4938235;28;20852;-69
2022/09/25 08:06:01;;;;;;;6.20;4.60;;;18.60;99.90;;;;;;5018253;28;20473;-69
2022/09/25 08:08:27;;;;;;;6.70;4.50;;;18.60;99.70;;;;;;5022154;28;20514;-69
2022/09/25 08:11:01;;;;;;;6.10;4.50;;;18.60;99.90;;;;;;5020630;28;20418;-71
2022/09/25 08:13:28;;;;;;;6.77;6.10;;;18.60;99.70;;;;;;5021936;28;20413;-69
2022/09/25 08:15:55;;;;;;;6.30;5.80;;;18.60;99.90;;;;;;5022730;28;20433;-69
2022/09/25 08:18:21;;;;;;;8.13;6.30;;;18.60;98.90;;;;;;5024126;28;20742;-69
2022/09/25 08:20:46;;;;;;;30.60;21.07;;;18.60;99.90;;;;;;5020898;28;20475;-68
2022/09/25 08:23:12;;;;;;;23.03;19.53;;;18.60;99.90;;;;;;5028181;28;20440;-68
2022/09/25 08:25:38;;;;;;;15.30;8.50;;;18.60;99.90;;;;;;5023273;28;20253;-71
2022/09/25 08:28:03;;;;;;;9.53;5.60;;;18.70;99.90;;;;;;5010980;28;20206;-69
2022/09/25 08:30:29;;;;;;;6.20;5.60;;;18.70;99.90;;;;;;5023668;28;20539;-69
2022/09/25 08:32:55;;;;;;;8.07;6.43;;;18.80;99.60;;;;;;5023182;28;20441;-68
2022/09/25 08:35:20;;;;;;;7.60;5.33;;;18.80;99.40;;;;;;5023305;28;20186;-69
2022/09/25 08:37:47;;;;;;;7.47;5.80;;;18.80;98.60;;;;;;5023351;28;20175;-69
2022/09/25 08:40:25;;;;;;;8.40;7.60;;;18.80;98.70;;;;;;5024687;28;20186;-69
2022/09/25 08:42:53;;;;;;;7.27;6.00;;;18.70;99.20;;;;;;5020701;28;20421;-69
2022/09/25 08:51:10;;;;;;;8.70;6.33;;;18.90;99.30;;;;;;5020962;28;20406;-69
2022/09/25 08:53:37;;;;;;;5.93;5.40;;;19.00;99.30;;;;;;5005831;28;20424;-69
2022/09/25 08:56:14;;;;;;;7.30;5.40;;;19.00;99.60;;;;;;5024025;28;20214;-69
2022/09/25 08:59:22;;;;;;;7.30;5.23;;;19.10;99.00;;;;;;5024567;28;20444;-74
2022/09/25 09:01:55;;;;;;;9.10;6.30;;;19.10;98.80;;;;;;5023633;28;20433;-69
2022/09/25 09:04:26;;;;;;;5.47;4.97;;;19.20;98.60;;;;;;5025303;28;20487;-70
2022/09/25 09:07:11;;;;;;;7.70;6.70;;;19.20;99.20;;;;;;5019557;28;20442;-74
2022/09/25 09:09:41;;;;;;;9.63;6.73;;;19.20;98.70;;;;;;5026278;28;20464;-69
2022/09/25 09:12:35;;;;;;;10.17;8.07;;;19.10;98.80;;;;;;5023165;28;20773;-69
2022/09/25 09:15:15;;;;;;;25.40;18.70;;;19.20;99.20;;;;;;5018778;28;20522;-69
2022/09/25 09:17:41;;;;;;;21.13;15.43;;;19.30;98.40;;;;;;5023513;28;20444;-75
2022/09/25 09:20:19;;;;;;;10.77;7.17;;;19.40;97.90;;;;;;5021317;28;20417;-69
2022/09/25 09:22:51;;;;;;;8.10;6.10;;;19.50;97.20;;;;;;5020039;28;20419;-69
2022/09/25 09:25:41;;;;;;;5.60;5.03;;;19.60;97.10;;;;;;5020439;28;20484;-69
2022/09/25 09:28:29;;;;;;;7.40;6.43;;;19.70;96.20;;;;;;5024633;28;20453;-68
2022/09/25 09:31:18;;;;;;;36.33;28.20;;;19.70;96.10;;;;;;5022012;28;20405;-69
2022/09/25 09:33:54;;;;;;;17.17;10.43;;;19.70;96.30;;;;;;5020334;28;20402;-75
2022/09/25 09:36:23;;;;;;;5.67;5.03;;;19.60;95.40;;;;;;5021157;28;20433;-70
2022/09/25 09:39:15;;;;;;;7.07;4.53;;;19.60;96.10;;;;;;5025709;28;20967;-69
2022/09/25 09:42:02;;;;;;;10.17;6.97;;;19.60;96.10;;;;;;5023085;28;20880;-74
2022/09/25 09:44:43;;;;;;;6.20;5.40;;;19.60;95.20;;;;;;5028969;28;20444;-69
2022/09/25 09:47:39;;;;;;;6.73;5.33;;;19.70;95.00;;;;;;5024434;28;20421;-69
2022/09/25 09:50:29;;;;;;;6.83;4.73;;;19.80;94.70;;;;;;5020386;28;20460;-69
2022/09/25 09:53:01;;;;;;;7.03;5.17;;;20.00;95.40;;;;;;5024276;28;20973;-69
2022/09/25 09:55:33;;;;;;;10.50;9.50;;;20.20;95.00;;;;;;5022655;28;20437;-69
2022/09/25 09:58:06;;;;;;;6.83;6.27;;;20.20;93.40;;;;;;5024605;28;20453;-69
2022/09/25 10:00:33;;;;;;;5.90;5.13;;;20.20;93.40;;;;;;5006948;28;20425;-68
2022/09/25 10:03:04;;;;;;;9.23;7.73;;;20.10;92.90;;;;;;5021396;28;20455;-69
2022/09/25 10:05:38;;;;;;;14.70;11.53;;;20.00;94.20;;;;;;5022468;28;20461;-69
2022/09/25 10:08:04;;;;;;;14.07;11.10;;;19.90;96.50;;;;;;5023351;28;20480;-69
2022/09/25 10:10:38;;;;;;;90.57;72.23;;;20.00;96.10;;;;;;5005705;28;20422;-69
2022/09/25 10:13:14;;;;;;;20.50;17.63;;;20.00;94.60;;;;;;5003073;28;20424;-68
2022/09/25 10:15:47;;;;;;;25.47;20.83;;;20.10;94.00;;;;;;5024039;28;20428;-68
2022/09/25 10:18:15;;;;;;;10.10;8.57;;;20.30;94.50;;;;;;5023141;28;20444;-68
2022/09/25 10:20:43;;;;;;;9.70;8.70;;;20.50;94.90;;;;;;5021815;28;20432;-69
2022/09/25 10:23:39;;;;;;;13.40;9.97;;;20.80;93.50;;;;;;5021962;28;20438;-69
2022/09/25 10:26:23;;;;;;;11.40;9.87;;;21.00;91.90;;;;;;5020799;28;20426;-69
2022/09/25 10:28:49;;;;;;;14.87;13.13;;;21.30;91.70;;;;;;5009215;28;20528;-69
2022/09/25 10:31:17;;;;;;;7.03;6.40;;;21.60;91.40;;;;;;5028952;28;20432;-69
2022/09/25 10:34:04;;;;;;;10.63;9.53;;;21.80;89.50;;;;;;5023864;28;20409;-74
2022/09/25 10:36:51;;;;;;;7.30;6.70;;;22.00;89.60;;;;;;5028019;28;20431;-69
2022/09/25 10:39:34;;;;;;;9.50;8.03;;;22.30;85.00;;;;;;5023700;28;20430;-69
2022/09/25 10:42:07;;;;;;;8.27;7.50;;;22.50;84.10;;;;;;5026059;28;20432;-69
2022/09/25 10:44:37;;;;;;;4.93;4.43;;;22.70;82.90;;;;;;5025139;28;20402;-69
2022/09/25 10:50:18;;;;;;;8.63;6.97;;;22.30;81.20;;;;;;5023374;28;20409;-69
2022/09/25 10:52:48;;;;;;;9.83;8.87;;;22.00;81.80;;;;;;5024627;28;20419;-70
2022/09/25 10:55:29;;;;;;;10.13;9.00;;;21.60;90.60;;;;;;5025096;28;20414;-69
2022/09/25 10:58:10;;;;;;;13.47;7.17;;;21.40;90.30;;;;;;5024703;28;20428;-72
2022/09/25 11:00:50;;;;;;;18.90;9.67;;;21.50;89.60;;;;;;5029552;28;20429;-69
2022/09/25 11:03:38;;;;;;;9.70;6.47;;;21.60;89.10;;;;;;5025232;28;20500;-68
2022/09/25 11:06:07;;;;;;;31.70;28.43;;;21.60;84.60;;;;;;5024399;28;20553;-68
2022/09/25 11:08:38;;;;;;;6.73;4.80;;;21.80;82.30;;;;;;5027068;28;20464;-68
2022/09/25 11:11:08;;;;;;;9.27;4.20;;;22.00;78.00;;;;;;5024737;28;20434;-68
2022/09/25 11:13:49;;;;;;;12.17;4.67;;;22.20;77.50;;;;;;5027702;28;20433;-68
2022/09/25 11:16:16;;;;;;;3.23;2.97;;;22.50;75.60;;;;;;5027706;28;20433;-67
2022/09/25 11:18:48;;;;;;;11.90;5.00;;;22.70;76.20;;;;;;5023846;28;20429;-68
2022/09/25 11:21:20;;;;;;;8.00;4.37;;;22.80;76.10;;;;;;5025771;28;20500;-68
2022/09/25 11:24:05;;;;;;;10.13;4.63;;;22.90;75.00;;;;;;5027426;28;20433;-69
2022/09/25 11:26:40;;;;;;;3.43;3.30;;;23.00;74.80;;;;;;5028286;28;20463;-68
2022/09/25 11:29:32;;;;;;;4.87;3.10;;;23.20;73.60;;;;;;5021936;28;21024;-68
2022/09/25 11:32:14;;;;;;;4.60;3.20;;;23.30;72.70;;;;;;5024942;28;20421;-69
2022/09/25 11:35:12;;;;;;;6.57;3.57;;;23.30;71.20;;;;;;5006822;28;20401;-69
2022/09/25 11:37:59;;;;;;;7.37;3.30;;;23.50;69.70;;;;;;5024500;28;20406;-68
2022/09/25 11:43:56;;;;;;;3.43;3.13;;;23.00;71.80;;;;;;5026377;28;20428;-68
2022/09/25 11:46:32;;;;;;;4.00;3.30;;;23.20;73.00;;;;;;5024708;28;20405;-67
2022/09/25 11:49:14;;;;;;;6.70;3.53;;;23.20;71.30;;;;;;5026114;28;20464;-68
2022/09/25 11:52:15;;;;;;;18.13;4.63;;;23.20;71.60;;;;;;5027130;28;20558;-68
2022/09/25 11:55:01;;;;;;;7.53;3.83;;;23.10;72.90;;;;;;5024318;28;20421;-67
2022/09/25 11:58:03;;;;;;;10.17;3.70;;;23.00;70.60;;;;;;5022136;28;20429;-68
2022/09/25 12:00:39;;;;;;;38.60;22.10;;;23.10;72.00;;;;;;5027464;28;20503;-66
2022/09/25 12:03:31;;;;;;;22.40;13.37;;;23.00;72.80;;;;;;5025646;28;20438;-67
2022/09/25 12:06:06;;;;;;;18.40;6.00;;;22.90;72.40;;;;;;5022462;28;20473;-68
2022/09/25 12:08:52;;;;;;;22.37;6.57;;;22.80;73.70;;;;;;5024013;28;20452;-66
2022/09/25 12:11:44;;;;;;;3.10;3.00;;;22.70;74.30;;;;;;5028068;28;20483;-64
2022/09/25 12:14:22;;;;;;;3.20;3.00;;;22.60;67.40;;;;;;5022584;28;20929;-64
2022/09/25 12:16:59;;;;;;;3.50;3.20;;;22.50;67.10;;;;;;5025184;28;20436;-65
2022/09/25 12:19:44;;;;;;;3.17;2.97;;;22.40;66.80;;;;;;5024641;28;20898;-67
2022/09/25 12:22:19;;;;;;;3.17;3.00;;;22.30;67.30;;;;;;5028534;28;20516;-64
2022/09/25 12:24:54;;;;;;;3.57;3.00;;;22.10;69.20;;;;;;5025332;28;20437;-70
2022/09/25 12:27:25;;;;;;;255.90;190.23;;;21.90;68.80;;;;;;5023619;28;20417;-65
2022/09/25 12:30:20;;;;;;;135.00;118.40;;;21.70;70.20;;;;;;5023243;28;20549;-64
2022/09/25 12:33:16;;;;;;;12.80;5.27;;;21.50;71.50;;;;;;5025252;28;20460;-65
2022/09/25 12:35:48;;;;;;;7.37;4.33;;;21.20;73.20;;;;;;5025658;28;20434;-64
2022/09/25 12:38:33;;;;;;;6.60;3.87;;;21.00;74.10;;;;;;5010367;28;20437;-64
2022/09/25 12:41:05;;;;;;;5.80;3.40;;;20.90;74.10;;;;;;5025212;28;20770;-66
2022/09/25 12:43:35;;;;;;;4.13;3.27;;;20.70;74.40;;;;;;5025286;28;20436;-64
2022/09/25 12:46:11;;;;;;;2.80;2.60;;;20.70;74.60;;;;;;5022716;28;20440;-68
2022/09/25 12:48:48;;;;;;;2.40;2.20;;;20.60;70.20;;;;;;5027556;28;20519;-64
2022/09/25 12:51:27;;;;;;;2.17;2.00;;;20.50;69.10;;;;;;5022601;28;20491;-64
2022/09/25 12:54:05;;;;;;;8.27;2.77;;;20.40;70.50;;;;;;5025588;28;20459;-64
2022/09/25 12:56:41;;;;;;;3.33;3.10;;;20.40;70.80;;;;;;5024823;28;20880;-65
2022/09/25 12:59:23;;;;;;;2.67;2.53;;;20.40;71.00;;;;;;5020443;28;20413;-64
2022/09/25 13:02:05;;;;;;;2.63;2.43;;;20.20;71.80;;;;;;5022343;28;20494;-65
2022/09/25 13:04:49;;;;;;;2.57;2.37;;;20.10;72.00;;;;;;5022882;28;20512;-64
2022/09/25 13:07:26;;;;;;;3.40;2.73;;;20.00;69.90;;;;;;5024045;28;20928;-66
2022/09/25 13:09:51;;;;;;;2.20;2.17;;;19.80;70.10;;;;;;5020151;28;20453;-64
2022/09/25 13:12:34;;;;;;;4.73;2.83;;;19.60;69.70;;;;;;5022180;28;20417;-64
2022/09/25 13:15:24;;;;;;;2.73;2.50;;;19.50;72.00;;;;;;5010316;28;20184;-64
2022/09/25 13:17:50;;;;;;;6.70;2.60;;;19.50;74.10;;;;;;5019335;28;20997;-64
2022/09/25 13:20:26;;;;;;;7.30;2.73;;;19.40;73.60;;;;;;5022055;28;20473;-66
2022/09/25 13:23:04;;;;;;;4.83;2.83;;;19.50;72.60;;;;;;5021776;28;20417;-64
2022/09/25 13:25:40;;;;;;;2.50;2.40;;;19.50;71.40;;;;;;5025962;28;20810;-65
2022/09/25 13:28:12;;;;;;;3.50;3.30;;;19.60;72.00;;;;;;4993029;28;20474;-66
2022/09/25 13:30:38;;;;;;;4.20;2.70;;;19.70;73.30;;;;;;5022528;28;20827;-65